Time;durP1;ratioP1;P1;durP2;ratioP2;P2;SDS_P1;SDS_P2;PMS_P1;PMS_P2;Temp;Humidity;BMP_temperature;BMP_pressure;BME280_temperature;BME280_humidity;BME280_pressure;Samples;Min_cycle;Max_cycle;Signal;HPM_P1;HPM_P2
2022/10/04 00:01:27;;;;;;;;;;;;;;;12.46;63.07;99899.50;4258197;33;34077;-92
2022/10/04 00:04:44;;;;;;;;;;;;;;;12.38;63.60;99885.78;4240960;33;34501;-91
2022/10/04 00:07:26;;;;;;;;;;;;;;;12.37;63.36;99891.84;4255698;33;34347;-90
2022/10/04 00:09:56;;;;;;;;;;;;;;;12.02;64.55;99895.06;4257868;33;33001;-91
2022/10/04 00:12:50;;;;;;;;;;;;;;;;;;;;;
2022/10/04 00:15:43;;;;;;;;;;;;;;;12.40;63.53;99893.56;4247696;33;34359;-93
2022/10/04 00:18:27;;;;;;;;;;;;;;;11.97;64.81;99905.53;4257361;33;33072;-94
2022/10/04 00:24:06;;;;;;;;;;;;;;;12.23;64.41;99892.13;4241101;33;33378;-91
2022/10/04 00:33:48;;;;;;;;;;;;;;;12.23;64.43;99891.25;4205725;33;33252;-94
2022/10/04 00:36:42;;;;;;;;;;;;;;;12.06;65.26;99901.94;4226308;33;34149;-91
2022/10/04 00:39:30;;;;;;;;;;;;;;;11.85;65.87;99901.34;4226475;33;36995;-92
2022/10/04 00:42:11;;;;;;;;;;;;;;;11.71;66.54;99887.69;4225554;33;33850;-91
2022/10/04 00:44:55;;;;;;;;;;;;;;;12.12;65.12;99889.66;4216346;33;34295;-91
2022/10/04 00:47:30;;;;;;;;;;;;;;;12.14;65.29;99889.66;4223525;33;32731;-93
2022/10/04 00:50:03;;;;;;;;;;;;;;;12.32;64.52;99883.28;4225644;33;34576;-91
2022/10/04 00:52:44;;;;;;;;;;;;;;;12.02;65.69;99869.91;4227368;33;34594;-91
2022/10/04 00:55:23;;;;;;;;;;;;;;;12.09;65.65;99874.13;4228478;33;33238;-94
2022/10/04 00:58:11;;;;;;;;;;;;;;;11.89;66.30;99878.81;4219778;33;34698;-90
2022/10/04 01:00:51;;;;;;;;;;;;;;;12.10;65.72;99875.84;4234093;33;36904;-91
2022/10/04 01:03:27;;;;;;;;;;;;;;;12.49;64.36;99878.66;4231493;33;33858;-91
2022/10/04 01:06:16;;;;;;;;;;;;;;;12.46;64.26;99875.25;4226940;33;33977;-90
2022/10/04 01:09:25;;;;;;;;;;;;;;;12.48;64.33;99878.69;4288452;33;36154;-94
2022/10/04 01:12:21;;;;;;;;;;;;;;;12.42;64.38;99879.66;4263877;33;36291;-90
2022/10/04 01:14:55;;;;;;;;;;;;;;;12.16;65.41;99875.75;4287534;33;33908;-94
2022/10/04 01:17:29;;;;;;;;;;;;;;;12.12;65.33;99870.63;4285543;33;33596;-92
2022/10/04 01:20:23;;;;;;;;;;;;;;;11.94;66.26;99870.03;4278677;33;34175;-91
2022/10/04 01:23:52;;;;;;;;;;;;;;;11.94;66.22;99871.78;4277016;33;35088;-90
2022/10/04 01:27:32;;;;;;;;;;;;;;;12.05;65.99;99861.19;4269376;33;34167;-92
2022/10/04 01:30:32;;;;;;;;;;;;;;;12.27;65.29;99862.53;4261457;33;33746;-91
2022/10/04 01:33:40;;;;;;;;;;;;;;;11.65;67.87;99867.84;4284579;33;34709;-91
2022/10/04 01:36:31;;;;;;;;;;;;;;;12.06;66.70;99865.53;4273566;33;34232;-93
2022/10/04 01:39:11;;;;;;;;;;;;;;;12.02;66.92;99858.66;4273724;33;34796;-90
2022/10/04 01:42:09;;;;;;;;;;;;;;;11.84;67.87;99862.34;4274187;33;33404;-93
2022/10/04 01:44:57;;;;;;;;;;;;;;;12.23;66.44;99860.06;4280287;33;37084;-90
2022/10/04 01:47:43;;;;;;;;;;;;;;;12.20;66.22;99857.47;4283861;33;36484;-91
2022/10/04 01:50:22;;;;;;;;;;;;;;;11.93;67.38;99857.91;4274805;33;34338;-91
2022/10/04 01:53:01;;;;;;;;;;;;;;;11.64;68.48;99870.47;4273717;33;33326;-91
2022/10/04 01:55:42;;;;;;;;;;;;;;;11.86;67.76;99877.06;4290712;33;33611;-92
2022/10/04 01:58:26;;;;;;;;;;;;;;;11.81;67.90;99872.81;4289005;33;34112;-94
2022/10/04 02:01:03;;;;;;;;;;;;;;;11.79;68.00;99878.06;4287798;33;33511;-90
2022/10/04 02:03:36;;;;;;;;;;;;;;;11.91;67.62;99883.09;4275592;33;33986;-93
2022/10/04 02:06:10;;;;;;;;;;;;;;;12.21;66.44;99878.28;4275533;33;36179;-90
2022/10/04 02:11:43;;;;;;;;;;;;;;;12.04;66.89;99878.56;4288302;33;34514;-92
2022/10/04 02:14:34;;;;;;;;;;;;;;;11.78;68.01;99873.72;4278878;33;34474;-92
2022/10/04 02:17:12;;;;;;;;;;;;;;;12.03;67.10;99870.75;4275022;33;33060;-92
2022/10/04 02:20:27;;;;;;;;;;;;;;;11.99;67.25;99869.13;4274913;33;37258;-92
2022/10/04 02:23:06;;;;;;;;;;;;;;;11.97;67.42;99874.31;4276429;33;34450;-91
2022/10/04 02:25:46;;;;;;;;;;;;;;;11.89;67.91;99871.84;4276367;33;34644;-91
2022/10/04 02:28:27;;;;;;;;;;;;;;;12.08;67.24;99879.34;4289408;33;35854;-91
2022/10/04 02:33:54;;;;;;;;;;;;;;;11.96;67.56;99888.22;4277693;33;34427;-91
2022/10/04 02:36:40;;;;;;;;;;;;;;;11.89;68.05;99887.44;4275274;33;33706;-92
2022/10/04 02:39:19;;;;;;;;;;;;;;;11.86;68.09;99890.06;4277393;33;33823;-92
2022/10/04 02:44:56;;;;;;;;;;;;;;;12.04;67.45;99877.69;4275895;33;33716;-93
2022/10/04 02:47:41;;;;;;;;;;;;;;;12.08;67.34;99879.34;4275296;33;33243;-90
2022/10/04 02:50:18;;;;;;;;;;;;;;;11.99;67.55;99874.31;4277897;33;34488;-90
2022/10/04 02:52:52;;;;;;;;;;;;;;;11.99;67.81;99875.16;4289532;33;34300;-90
2022/10/04 02:55:33;;;;;;;;;;;;;;;12.23;66.56;99875.66;4275511;33;34413;-91
2022/10/04 02:58:20;;;;;;;;;;;;;;;12.14;67.11;99872.31;4284672;33;33052;-91
2022/10/04 03:00:58;;;;;;;;;;;;;;;12.11;67.44;99871.50;4287064;33;35149;-91
2022/10/04 03:03:39;;;;;;;;;;;;;;;12.11;67.27;99879.31;4271487;33;34386;-90
2022/10/04 03:06:27;;;;;;;;;;;;;;;11.94;68.00;99885.63;4277033;33;35205;-91
2022/10/04 03:09:03;;;;;;;;;;;;;;;12.06;67.59;99879.37;4274479;33;33997;-90
2022/10/04 03:11:34;;;;;;;;;;;;;;;11.84;68.57;99878.84;4270564;33;38271;-91
2022/10/04 03:14:08;;;;;;;;;;;;;;;11.96;68.31;99880.44;4270675;33;33174;-90
2022/10/04 03:16:37;;;;;;;;;;;;;;;12.00;68.10;99886.41;4272485;33;37289;-91
2022/10/04 03:19:31;;;;;;;;;;;;;;;11.97;68.50;99883.88;4274571;33;34025;-93
2022/10/04 03:22:11;;;;;;;;;;;;;;;12.06;68.15;99875.94;4274664;33;34407;-92
2022/10/04 03:24:45;;;;;;;;;;;;;;;11.98;68.56;99880.38;4286002;33;34827;-92
2022/10/04 03:27:26;;;;;;;;;;;;;;;12.16;67.75;99878.34;4273637;33;35125;-91
2022/10/04 03:30:22;;;;;;;;;;;;;;;12.20;67.49;99873.94;4271726;33;32333;-92
2022/10/04 03:33:00;;;;;;;;;;;;;;;12.02;68.02;99888.13;4270290;33;34035;-91
2022/10/04 03:35:52;;;;;;;;;;;;;;;11.98;68.33;99885.56;4270044;33;35124;-91
2022/10/04 03:51:54;;;;;;;;;;;;;;;11.96;68.23;99890.81;4272754;33;34995;-91
2022/10/04 03:55:32;;;;;;;;;;;;;;;11.68;69.31;99887.75;4273782;33;33630;-90
2022/10/04 04:05:04;;;;;;;;;;;;;;;11.48;70.22;99883.69;4273967;33;34290;-92
2022/10/04 04:15:12;;;;;;;;;;;;;;;11.70;69.62;99889.44;4274785;33;34571;-93
2022/10/04 04:21:54;;;;;;;;;;;;;;;11.51;70.46;99890.56;4287242;33;33508;-94
2022/10/04 04:24:42;;;;;;;;;;;;;;;11.47;70.59;99901.87;4263529;33;34993;-93
2022/10/04 04:27:44;;;;;;;;;;;;;;;11.59;70.40;99900.84;4276446;33;34253;-91
2022/10/04 04:30:44;;;;;;;;;;;;;;;11.47;70.78;99907.94;4270812;33;34092;-94
2022/10/04 04:33:20;;;;;;;;;;;;;;;11.47;70.52;99907.94;4272283;33;31768;-91
2022/10/04 04:35:56;;;;;;;;;;;;;;;11.60;70.33;99913.84;4287133;33;34385;-93
2022/10/04 04:38:29;;;;;;;;;;;;;;;11.52;70.23;99919.16;4282782;33;34193;-91
2022/10/04 04:41:01;;;;;;;;;;;;;;;11.53;70.34;99927.78;4281642;33;35269;-91
2022/10/04 04:43:29;;;;;;;;;;;;;;;11.46;70.66;99923.56;4282858;33;31298;-90
2022/10/04 04:45:58;;;;;;;;;;;;;;;11.22;71.60;99922.13;4286445;33;34579;-90
2022/10/04 04:48:53;;;;;;;;;;;;;;;11.34;71.34;99923.72;4284853;33;33671;-90
2022/10/04 04:51:29;;;;;;;;;;;;;;;11.42;70.92;99917.53;4283824;33;33973;-91
2022/10/04 04:53:59;;;;;;;;;;;;;;;11.53;70.69;99918.25;4285036;33;32961;-91
2022/10/04 04:56:28;;;;;;;;;;;;;;;11.57;70.24;99915.59;4278311;33;35054;-89
2022/10/04 04:58:58;;;;;;;;;;;;;;;11.67;70.16;99924.97;4284989;33;33777;-90
2022/10/04 05:01:31;;;;;;;;;;;;;;;11.37;71.09;99928.88;4275369;33;34256;-89
2022/10/04 05:04:01;;;;;;;;;;;;;;;11.57;70.65;99932.03;4269819;33;32849;-89
2022/10/04 05:06:30;;;;;;;;;;;;;;;11.53;70.68;99931.25;4280545;33;33514;-90
2022/10/04 05:09:00;;;;;;;;;;;;;;;11.56;71.26;99934.69;4277093;33;35707;-89
2022/10/04 05:11:33;;;;;;;;;;;;;;;11.51;71.19;99935.59;4282350;33;33415;-91
2022/10/04 05:14:01;;;;;;;;;;;;;;;11.38;71.87;99934.06;4279759;33;33351;-91
2022/10/04 05:16:32;;;;;;;;;;;;;;;11.44;71.85;99949.53;4267479;33;34014;-91
2022/10/04 05:19:01;;;;;;;;;;;;;;;11.31;72.78;99937.59;4280690;33;35290;-89
2022/10/04 05:21:38;;;;;;;;;;;;;;;11.49;72.08;99949.50;4286473;33;33972;-90
2022/10/04 05:24:12;;;;;;;;;;;;;;;11.59;71.93;99953.69;4286070;33;33617;-91
2022/10/04 05:26:44;;;;;;;;;;;;;;;11.52;72.50;99947.72;4279064;33;33779;-90
2022/10/04 05:29:18;;;;;;;;;;;;;;;11.78;71.33;99962.09;4282425;33;34719;-91
2022/10/04 05:31:47;;;;;;;;;;;;;;;11.73;71.82;99961.31;4281608;33;33867;-91
2022/10/04 05:34:22;;;;;;;;;;;;;;;11.64;72.65;99958.81;4288418;33;32678;-91
2022/10/04 05:36:54;;;;;;;;;;;;;;;11.78;71.97;99964.69;4285725;33;34269;-94
2022/10/04 05:39:26;;;;;;;;;;;;;;;11.94;71.50;99973.19;4278437;33;34493;-90
2022/10/04 05:42:00;;;;;;;;;;;;;;;11.70;72.43;99971.75;4284410;33;34051;-89
2022/10/04 05:44:31;;;;;;;;;;;;;;;11.97;71.42;99974.88;4280510;33;33077;-93
2022/10/04 05:47:07;;;;;;;;;;;;;;;11.89;71.88;99980.19;4286192;33;33462;-91
2022/10/04 05:49:38;;;;;;;;;;;;;;;11.80;72.00;99975.09;4279332;33;35048;-91
2022/10/04 05:52:32;;;;;;;;;;;;;;;11.77;72.51;99970.78;4271735;33;32419;-92
2022/10/04 05:55:18;;;;;;;;;;;;;;;11.95;71.89;99972.28;4278006;33;33234;-92
2022/10/04 05:57:50;;;;;;;;;;;;;;;12.04;71.75;99966.09;4280355;33;33799;-92
2022/10/04 06:00:23;;;;;;;;;;;;;;;12.11;71.79;99975.53;4251613;33;33619;-94
2022/10/04 06:03:21;;;;;;;;;;;;;;;11.83;73.53;99973.28;4254463;33;36198;-91
2022/10/04 06:05:50;;;;;;;;;;;;;;;12.21;72.05;99984.91;4226077;33;32484;-90
2022/10/04 06:08:22;;;;;;;;;;;;;;;12.21;72.47;99992.72;4223737;33;34572;-92
2022/10/04 06:10:58;;;;;;;;;;;;;;;12.03;73.58;99995.56;4210152;33;34093;-91
2022/10/04 06:13:51;;;;;;;;;;;;;;;12.05;73.60;99999.00;4223029;33;33688;-90
2022/10/04 06:16:21;;;;;;;;;;;;;;;12.24;73.51;99994.41;4222084;33;33187;-90
2022/10/04 06:19:13;;;;;;;;;;;;;;;12.36;73.51;99996.81;4228480;33;34131;-92
2022/10/04 06:21:44;;;;;;;;;;;;;;;12.70;72.21;100004.09;4213923;34;33996;-92
2022/10/04 06:24:34;;;;;;;;;;;;;;;12.43;72.42;100001.03;4207354;34;34491;-95
2022/10/04 06:27:09;;;;;;;;;;;;;;;12.73;71.71;100004.91;4204665;34;32569;-91
2022/10/04 06:29:44;;;;;;;;;;;;;;;12.53;72.66;100012.16;4207844;34;35366;-91
2022/10/04 06:32:43;;;;;;;;;;;;;;;12.74;71.91;100010.97;4212975;34;32794;-90
2022/10/04 06:35:20;;;;;;;;;;;;;;;12.73;71.94;100014.44;4215282;33;32791;-91
2022/10/04 06:38:07;;;;;;;;;;;;;;;12.95;71.13;100014.91;4212425;33;32714;-92
2022/10/04 06:40:53;;;;;;;;;;;;;;;13.07;71.27;100013.84;4213153;33;32334;-91
2022/10/04 06:43:34;;;;;;;;;;;;;;;13.20;70.74;100010.16;4246937;33;34538;-93
2022/10/04 06:46:15;;;;;;;;;;;;;;;13.40;70.09;100012.38;4254656;33;34737;-93
2022/10/04 06:48:50;;;;;;;;;;;;;;;13.29;70.47;100024.75;4250436;33;33209;-92
2022/10/04 06:51:24;;;;;;;;;;;;;;;13.34;69.82;100033.37;4261345;33;34290;-91
2022/10/04 06:53:59;;;;;;;;;;;;;;;13.36;70.50;100029.84;4253859;33;34217;-91
2022/10/04 06:56:33;;;;;;;;;;;;;;;13.61;69.94;100019.78;4258593;33;33643;-92
2022/10/04 06:59:12;;;;;;;;;;;;;;;13.67;69.37;100031.81;4260270;33;33470;-91
2022/10/04 07:01:47;;;;;;;;;;;;;;;13.50;70.81;100024.34;4281785;33;32782;-92
2022/10/04 07:04:22;;;;;;;;;;;;;;;13.73;69.23;100021.28;4287966;33;35019;-90
2022/10/04 07:07:22;;;;;;;;;;;;;;;13.67;69.22;100029.22;4282900;33;34023;-90
2022/10/04 07:10:03;;;;;;;;;;;;;;;13.84;68.70;100031.47;4284569;33;33829;-93
2022/10/04 07:12:35;;;;;;;;;;;;;;;13.51;69.72;100031.28;4274612;33;33987;-91
2022/10/04 07:15:09;;;;;;;;;;;;;;;13.42;70.19;100031.47;4282129;33;33734;-90
2022/10/04 07:17:39;;;;;;;;;;;;;;;13.65;70.08;100038.81;4285145;33;33964;-93
2022/10/04 07:20:15;;;;;;;;;;;;;;;13.94;68.61;100046.06;4288514;33;33227;-93
2022/10/04 07:22:44;;;;;;;;;;;;;;;13.83;69.26;100042.81;4286391;33;34147;-90
2022/10/04 07:25:19;;;;;;;;;;;;;;;13.48;70.75;100051.31;4282572;33;33682;-92
2022/10/04 07:27:48;;;;;;;;;;;;;;;13.76;69.51;100052.50;4284373;33;33663;-92
2022/10/04 07:30:29;;;;;;;;;;;;;;;14.06;68.39;100045.78;4282628;33;32766;-93
2022/10/04 07:33:05;;;;;;;;;;;;;;;14.11;67.85;100048.31;4276099;33;32383;-90
2022/10/04 07:35:35;;;;;;;;;;;;;;;13.96;68.08;100044.25;4271065;33;32495;-91
2022/10/04 07:38:22;;;;;;;;;;;;;;;14.04;67.82;100051.94;4283585;33;33846;-93
2022/10/04 07:41:02;;;;;;;;;;;;;;;13.86;68.36;100038.38;4285161;33;32679;-94
2022/10/04 07:43:32;;;;;;;;;;;;;;;13.82;68.48;100041.06;4283401;33;33875;-91
2022/10/04 07:46:06;;;;;;;;;;;;;;;13.93;68.78;100049.53;4287260;33;33348;-91
2022/10/04 07:48:34;;;;;;;;;;;;;;;14.14;67.70;100044.78;4283333;33;34436;-90
2022/10/04 07:51:09;;;;;;;;;;;;;;;13.96;68.04;100043.41;4285083;33;32790;-91
2022/10/04 07:53:47;;;;;;;;;;;;;;;13.75;68.92;100042.97;4285531;33;34159;-91
2022/10/04 07:56:20;;;;;;;;;;;;;;;14.11;67.54;100048.31;4284225;33;33924;-90
2022/10/04 07:58:50;;;;;;;;;;;;;;;14.06;67.75;100044.91;4275561;33;33209;-91
2022/10/04 08:01:27;;;;;;;;;;;;;;;13.99;67.52;100049.44;4271899;33;32605;-91
2022/10/04 08:04:03;;;;;;;;;;;;;;;14.23;66.66;100044.53;4286000;33;34160;-93
2022/10/04 08:06:36;;;;;;;;;;;;;;;14.52;65.90;100051.69;4284107;33;32961;-93
2022/10/04 08:09:20;;;;;;;;;;;;;;;14.69;64.89;100052.22;4284659;33;33320;-93
2022/10/04 08:11:51;;;;;;;;;;;;;;;14.55;65.46;100056.06;4275155;33;32222;-91
2022/10/04 08:14:35;;;;;;;;;;;;;;;14.84;63.75;100061.41;4288966;33;34116;-93
2022/10/04 08:17:11;;;;;;;;;;;;;;;15.07;63.20;100050.37;4271550;33;33232;-90
2022/10/04 08:19:45;;;;;;;;;;;;;;;15.28;62.74;100066.41;4270855;33;32089;-90
2022/10/04 08:22:21;;;;;;;;;;;;;;;15.51;62.01;100060.53;4284800;33;34779;-91
2022/10/04 08:25:09;;;;;;;;;;;;;;;15.50;61.25;100067.53;4282044;33;32825;-93
2022/10/04 08:31:20;;;;;;;;;;;;;;;15.52;61.57;100083.19;4288936;33;34631;-93
2022/10/04 08:34:08;;;;;;;;;;;;;;;15.30;61.08;100077.69;4257448;33;33821;-92
2022/10/04 08:36:54;;;;;;;;;;;;;;;15.34;61.37;100087.13;4252729;33;34252;-90
2022/10/04 08:39:50;;;;;;;;;;;;;;;15.12;61.91;100079.84;4253234;33;33931;-91
2022/10/04 08:42:24;;;;;;;;;;;;;;;15.51;60.57;100086.69;4229543;33;33217;-93
2022/10/04 08:45:07;;;;;;;;;;;;;;;15.46;60.76;100084.19;4224965;33;33024;-91
2022/10/04 08:47:51;;;;;;;;;;;;;;;15.47;61.15;100083.31;4225076;33;34517;-89
2022/10/04 08:50:38;;;;;;;;;;;;;;;15.77;60.71;100089.47;4229985;33;33783;-90
2022/10/04 08:53:25;;;;;;;;;;;;;;;15.75;59.97;100083.44;4229232;33;34218;-92
2022/10/04 08:56:04;;;;;;;;;;;;;;;15.98;58.23;100089.78;4213673;33;32653;-90
2022/10/04 08:58:50;;;;;;;;;;;;;;;16.08;58.78;100085.97;4223855;33;34635;-92
2022/10/04 09:01:42;;;;;;;;;;;;;;;16.31;57.74;100094.91;4225207;33;33874;-90
2022/10/04 09:04:36;;;;;;;;;;;;;;;16.38;57.34;100092.06;4221912;33;34516;-91
2022/10/04 09:07:08;;;;;;;;;;;;;;;16.32;56.13;100105.34;4253116;33;33077;-90
2022/10/04 09:09:58;;;;;;;;;;;;;;;16.17;55.85;100090.94;4257828;33;33821;-91
2022/10/04 09:12:46;;;;;;;;;;;;;;;16.28;56.64;100102.84;4255813;33;34516;-92
2022/10/04 09:15:20;;;;;;;;;;;;;;;16.43;56.68;100102.41;4253467;33;33565;-92
2022/10/04 09:17:53;;;;;;;;;;;;;;;16.45;54.64;100102.34;4262592;33;33714;-92
2022/10/04 09:20:30;;;;;;;;;;;;;;;16.66;54.98;100109.53;4272549;33;35076;-92
2022/10/04 09:23:21;;;;;;;;;;;;;;;16.55;54.45;100098.53;4275495;33;34135;-92
2022/10/04 09:26:05;;;;;;;;;;;;;;;16.27;55.45;100090.69;4271772;33;33209;-90
2022/10/04 09:28:54;;;;;;;;;;;;;;;16.32;56.38;100083.53;4274462;33;33913;-91
2022/10/04 09:31:49;;;;;;;;;;;;;;;16.67;56.20;100084.19;4284699;33;33719;-90
2022/10/04 09:34:32;;;;;;;;;;;;;;;16.74;54.64;100097.03;4283887;33;34334;-91
2022/10/04 09:37:27;;;;;;;;;;;;;;;16.72;54.73;100088.41;4280957;33;36944;-90
2022/10/04 09:40:02;;;;;;;;;;;;;;;16.71;54.46;100091.91;4269537;33;32897;-90
2022/10/04 09:42:49;;;;;;;;;;;;;;;16.69;54.88;100080.59;4275469;33;33624;-94
2022/10/04 09:45:22;;;;;;;;;;;;;;;16.54;55.68;100097.69;4283947;33;33902;-93
2022/10/04 09:48:14;;;;;;;;;;;;;;;16.63;54.81;100093.91;4287180;33;33400;-91
2022/10/04 09:51:07;;;;;;;;;;;;;;;16.36;55.30;100104.34;4284073;33;33696;-89
2022/10/04 09:53:39;;;;;;;;;;;;;;;16.20;56.24;100105.72;4279067;33;33655;-91
2022/10/04 09:56:42;;;;;;;;;;;;;;;16.49;55.97;100117.06;4282523;33;32841;-92
2022/10/04 09:59:27;;;;;;;;;;;;;;;16.63;55.59;100113.09;4281975;33;32759;-90
2022/10/04 10:02:16;;;;;;;;;;;;;;;16.21;56.47;100097.81;4287851;33;32994;-92
2022/10/04 10:04:49;;;;;;;;;;;;;;;16.00;56.85;100115.00;4283470;33;34041;-92
2022/10/04 10:07:23;;;;;;;;;;;;;;;16.25;56.84;100114.28;4288281;33;34093;-90
2022/10/04 10:16:01;;;;;;;;;;;;;;;16.50;56.17;100124.84;4269325;33;34190;-91
2022/10/04 10:18:33;;;;;;;;;;;;;;;16.44;56.15;100122.44;4268937;33;34772;-90
2022/10/04 10:21:06;;;;;;;;;;;;;;;16.56;56.13;100129.91;4270343;33;34644;-91
2022/10/04 10:23:49;;;;;;;;;;;;;;;16.44;54.31;100127.69;4272692;33;31780;-91
2022/10/04 10:26:23;;;;;;;;;;;;;;;16.52;53.01;100127.44;4273657;33;33574;-90
2022/10/04 10:29:13;;;;;;;;;;;;;;;16.44;54.65;100125.06;4267665;33;32678;-94
2022/10/04 10:31:53;;;;;;;;;;;;;;;16.55;53.57;100133.47;4253073;33;33023;-91
2022/10/04 10:34:36;;;;;;;;;;;;;;;16.27;54.27;100135.19;4269006;33;33326;-91
2022/10/04 10:37:08;;;;;;;;;;;;;;;16.31;53.92;100129.81;4269880;33;32721;-92
2022/10/04 10:39:50;;;;;;;;;;;;;;;16.35;53.62;100127.94;4288267;33;35251;-90
2022/10/04 10:42:43;;;;;;;;;;;;;;;16.39;53.71;100130.44;4286999;33;33546;-90
2022/10/04 10:45:20;;;;;;;;;;;;;;;16.15;54.82;100125.94;4282733;33;32659;-91
2022/10/04 10:47:53;;;;;;;;;;;;;;;16.33;54.70;100137.59;4282934;33;34017;-91
2022/10/04 10:50:57;;;;;;;;;;;;;;;16.41;53.00;100133.88;4254881;33;1018766;-92
2022/10/04 10:53:36;;;;;;;;;;;;;;;16.50;52.54;100142.34;4285241;33;35125;-90
2022/10/04 10:56:22;;;;;;;;;;;;;;;16.58;52.88;100129.88;4282848;33;32427;-91
2022/10/04 10:59:43;;;;;;;;;;;;;;;16.22;53.49;100124.84;4287541;33;34256;-90
2022/10/04 11:02:23;;;;;;;;;;;;;;;16.45;52.69;100131.16;4242131;33;34022;-92
2022/10/04 11:05:28;;;;;;;;;;;;;;;16.47;53.49;100129.34;4287651;33;35224;-92
2022/10/04 11:07:59;;;;;;;;;;;;;;;16.25;54.87;100126.50;4269732;33;33277;-89
2022/10/04 11:10:37;;;;;;;;;;;;;;;16.53;54.42;100130.03;4280110;33;33799;-92
2022/10/04 11:13:25;;;;;;;;;;;;;;;16.75;54.42;100122.34;4277303;33;33664;-92
2022/10/04 11:16:07;;;;;;;;;;;;;;;16.77;54.53;100120.53;4268940;33;34543;-91
2022/10/04 11:19:01;;;;;;;;;;;;;;;16.55;54.28;100119.47;4268255;33;34016;-90
2022/10/04 11:21:34;;;;;;;;;;;;;;;16.55;54.65;100112.50;4272046;33;32693;-92
2022/10/04 11:24:12;;;;;;;;;;;;;;;16.96;53.29;100117.34;4267206;33;32891;-90
2022/10/04 11:26:52;;;;;;;;;;;;;;;17.14;52.86;100118.53;4268008;33;35281;-93
2022/10/04 11:29:32;;;;;;;;;;;;;;;16.80;54.55;100136.19;4268924;33;33435;-89
2022/10/04 11:32:20;;;;;;;;;;;;;;;16.72;55.09;100126.81;4272818;33;33797;-89
2022/10/04 11:35:08;;;;;;;;;;;;;;;16.74;55.34;100132.88;4268522;33;33528;-91
2022/10/04 11:37:52;;;;;;;;;;;;;;;16.68;56.65;100117.34;4272207;33;33846;-91
2022/10/04 11:40:30;;;;;;;;;;;;;;;17.01;55.65;100116.31;4287470;33;33157;-91
2022/10/04 11:43:08;;;;;;;;;;;;;;;17.10;55.19;100127.38;4283357;33;34166;-91
2022/10/04 11:45:54;;;;;;;;;;;;;;;17.26;54.34;100131.22;4280599;33;34536;-93
2022/10/04 11:48:28;;;;;;;;;;;;;;;17.19;53.65;100124.47;4281856;33;33991;-90
2022/10/04 11:51:06;;;;;;;;;;;;;;;17.38;53.73;100119.44;4283923;33;33385;-91
2022/10/04 11:53:42;;;;;;;;;;;;;;;17.12;53.64;100125.56;4287389;33;33375;-91
2022/10/04 11:56:19;;;;;;;;;;;;;;;17.16;54.46;100130.66;4270861;33;33750;-91
2022/10/04 11:58:55;;;;;;;;;;;;;;;17.05;53.91;100135.41;4282768;33;34808;-91
2022/10/04 12:01:39;;;;;;;;;;;;;;;16.87;54.10;100136.00;4282699;33;32650;-91
2022/10/04 12:04:14;;;;;;;;;;;;;;;16.80;54.76;100136.19;4282449;33;33770;-91
2022/10/04 12:06:46;;;;;;;;;;;;;;;16.66;53.78;100137.50;4285863;33;34560;-91
2022/10/04 12:09:19;;;;;;;;;;;;;;;16.56;54.50;100135.16;4287792;33;34058;-91
2022/10/04 12:15:02;;;;;;;;;;;;;;;16.94;52.59;100137.53;4282465;33;33852;-91
2022/10/04 12:17:40;;;;;;;;;;;;;;;16.91;52.68;100141.06;4282489;33;33377;-92
2022/10/04 12:20:19;;;;;;;;;;;;;;;16.98;52.70;100136.50;4283644;33;33193;-89
2022/10/04 12:22:59;;;;;;;;;;;;;;;17.11;52.44;100137.84;4284414;33;33379;-89
2022/10/04 12:25:32;;;;;;;;;;;;;;;17.10;53.26;100136.09;4286508;33;34976;-89
2022/10/04 12:28:19;;;;;;;;;;;;;;;16.84;54.30;100139.56;4283349;33;33900;-90
2022/10/04 12:31:06;;;;;;;;;;;;;;;16.63;54.34;100138.44;4265904;33;33430;-90
2022/10/04 12:33:37;;;;;;;;;;;;;;;16.47;55.32;100140.66;4270437;33;32995;-91
2022/10/04 12:36:30;;;;;;;;;;;;;;;16.51;56.14;100147.53;4282504;33;34126;-92
2022/10/04 12:39:04;;;;;;;;;;;;;;;16.63;56.66;100141.06;4282758;33;33780;-92
2022/10/04 12:41:38;;;;;;;;;;;;;;;16.29;58.06;100144.72;4274608;33;32450;-92
2022/10/04 12:44:15;;;;;;;;;;;;;;;16.72;57.53;100146.03;4278570;33;31598;-93
2022/10/04 12:47:07;;;;;;;;;;;;;;;16.76;57.27;100141.53;4270299;33;34171;-90
2022/10/04 12:49:38;;;;;;;;;;;;;;;16.58;57.81;100149.06;4273546;33;33849;-90
2022/10/04 12:52:08;;;;;;;;;;;;;;;16.75;58.37;100151.16;4285844;33;33036;-92
2022/10/04 12:54:38;;;;;;;;;;;;;;;16.73;58.36;100146.88;4287183;33;34833;-92
2022/10/04 12:57:16;;;;;;;;;;;;;;;16.54;59.24;100144.81;4282669;33;35144;-92
2022/10/04 12:59:53;;;;;;;;;;;;;;;16.74;57.59;100148.59;4272244;33;33390;-93
2022/10/04 13:02:27;;;;;;;;;;;;;;;16.81;57.41;100144.91;4271936;33;33608;-92
2022/10/04 13:04:59;;;;;;;;;;;;;;;16.75;57.78;100147.69;4268038;33;33453;-91
2022/10/04 13:07:42;;;;;;;;;;;;;;;17.13;56.62;100150.88;4271853;33;33153;-91
2022/10/04 13:10:24;;;;;;;;;;;;;;;17.17;55.31;100142.84;4273321;33;33966;-90
2022/10/04 13:13:13;;;;;;;;;;;;;;;17.14;56.08;100135.09;4271247;33;34554;-93
2022/10/04 13:15:43;;;;;;;;;;;;;;;17.37;54.89;100143.94;4280380;33;32359;-91
2022/10/04 13:18:39;;;;;;;;;;;;;;;17.38;54.59;100135.19;4269666;33;33879;-92
2022/10/04 13:21:12;;;;;;;;;;;;;;;17.83;53.30;100124.87;4269486;33;34891;-92
2022/10/04 13:23:53;;;;;;;;;;;;;;;18.04;52.44;100130.25;4272533;33;33665;-91
2022/10/04 13:26:28;;;;;;;;;;;;;;;18.10;51.94;100130.03;4270328;33;32976;-92
2022/10/04 13:29:03;;;;;;;;;;;;;;;17.94;51.06;100124.47;4276757;33;33277;-90
2022/10/04 13:31:44;;;;;;;;;;;;;;;17.98;49.81;100125.25;4264861;33;33785;-91
2022/10/04 13:34:20;;;;;;;;;;;;;;;18.08;50.09;100130.09;4269704;33;33834;-92
2022/10/04 13:36:58;;;;;;;;;;;;;;;18.18;50.42;100127.12;4269189;33;33681;-90
2022/10/04 13:39:30;;;;;;;;;;;;;;;18.29;50.51;100131.06;4260079;33;32988;-94
2022/10/04 13:42:12;;;;;;;;;;;;;;;18.58;50.15;100138.72;4259161;33;33325;-92
2022/10/04 13:44:55;;;;;;;;;;;;;;;18.78;49.78;100136.19;4264252;33;33561;-91
2022/10/04 13:47:29;;;;;;;;;;;;;;;18.80;49.97;100137.00;4263249;33;32438;-92
2022/10/04 13:50:12;;;;;;;;;;;;;;;18.77;48.51;100139.72;4265916;33;34233;-92
2022/10/04 13:58:36;;;;;;;;;;;;;;;18.34;49.91;100142.25;4284601;33;32306;-91
2022/10/04 14:01:21;;;;;;;;;;;;;;;18.33;49.99;100137.88;4274039;33;33345;-91
2022/10/04 14:03:50;;;;;;;;;;;;;;;18.21;47.83;100145.37;4269926;33;34661;-90
2022/10/04 14:06:38;;;;;;;;;;;;;;;18.29;49.30;100152.06;4255710;33;32104;-91
2022/10/04 14:09:27;;;;;;;;;;;;;;;18.33;49.24;100153.63;4264475;33;33519;-93
2022/10/04 14:12:18;;;;;;;;;;;;;;;18.13;49.95;100157.03;4270779;33;34349;-91
2022/10/04 14:15:06;;;;;;;;;;;;;;;18.32;49.96;100151.94;4276891;33;34009;-92
2022/10/04 14:18:20;;;;;;;;;;;;;;;18.06;50.22;100152.06;4254639;33;34946;-91
2022/10/04 14:21:25;;;;;;;;;;;;;;;17.93;50.91;100151.66;4263322;33;32953;-91
2022/10/04 14:23:59;;;;;;;;;;;;;;;18.18;49.11;100156.00;4264830;33;33452;-90
2022/10/04 14:26:41;;;;;;;;;;;;;;;18.19;48.77;100155.94;4268121;33;34366;-90
2022/10/04 14:29:16;;;;;;;;;;;;;;;18.27;49.05;100160.91;4267719;33;34705;-94
2022/10/04 14:32:00;;;;;;;;;;;;;;;18.09;48.82;100154.56;4271821;33;32886;-91
2022/10/04 14:34:34;;;;;;;;;;;;;;;17.96;49.48;100151.53;4271020;33;33436;-91
2022/10/04 14:37:22;;;;;;;;;;;;;;;17.77;49.70;100148.69;4273695;33;35547;-92
2022/10/04 14:39:58;;;;;;;;;;;;;;;17.61;50.54;100147.50;4263132;33;34285;-92
2022/10/04 14:42:36;;;;;;;;;;;;;;;17.60;48.73;100151.91;4271375;33;32950;-90
2022/10/04 14:45:21;;;;;;;;;;;;;;;17.34;49.29;100151.94;4256917;33;33049;-92
2022/10/04 14:48:12;;;;;;;;;;;;;;;17.21;49.33;100154.12;4268807;33;33782;-93
2022/10/04 14:50:49;;;;;;;;;;;;;;;17.01;49.50;100160.88;4270005;33;33453;-94
2022/10/04 14:53:23;;;;;;;;;;;;;;;17.27;49.25;100169.63;4273590;33;33785;-91
2022/10/04 14:56:12;;;;;;;;;;;;;;;17.06;49.47;100171.19;4266339;33;33725;-93
2022/10/04 14:58:41;;;;;;;;;;;;;;;17.23;49.28;100173.28;4265947;33;34269;-90
2022/10/04 15:01:31;;;;;;;;;;;;;;;17.27;49.79;100167.00;4239954;33;33684;-90